Terminal Aerodrome Forecast
Issued by NWS

Home | Current Version | Previous Version | Graphics & Text | Print | Product List | Glossary On
Versions: 1 2 3 4 5 6 7 8 9 10 11 12 13 14 15 16 17 18 19 20 21 22 23 24 25 26 27 28
000
FTUS45 KGGW 290500
TAFOLF
TAF
KOLF 290520Z 2906/3006 31021G28KT P6SM VCSH BKN027
     FM290800 30013G24KT P6SM SCT030 SCT150
     FM291200 28009KT P6SM SCT250
     FM300300 26008KT P6SM SCT250=

USA.gov is the U.S. government's official web portal to all federal, state and local government web resources and services.